Bruce Mines, Canada
Current Conditions -  °F | °C
As of 7:54 PM on Saturday 25 Oct 2014 (Local Time) from KDRM Reporting Station
Overcast Overcast  
Wind Chill: 11°   Ceiling: 6000
Heat Index: 11°   Visibility: 10mi
Dew Point:   Wind: 10mph
Humidity: 56%   Direction: 290°WNW
Pressure: 29.66"   Gusts: 21mph
Location:  46.3°N, 83.79°W
Report Text: KDRM 252354Z AUTO 29009G18KT 10SM OVC060 11/02 A2966 RMK AO2 T01090024
Loading
Personal Weather Stations






























Interactive Weather Map
Tropical Storm Tracking
New forecast layout! Learn more

10-Day Weather Forecast

Advertisements
Track Severe Weather on mobile